Time;durP1;ratioP1;P1;durP2;ratioP2;P2;SDS_P1;SDS_P2;PMS_P1;PMS_P2;Temp;Humidity;BMP_temperature;BMP_pressure;BME280_temperature;BME280_humidity;BME280_pressure;Samples;Min_cycle;Max_cycle;Signal;HPM_P1;HPM_P2
2023/04/28 00:03:35;;;;;;;;;;;8.20;99.90;;;;;;8294607;28;20008;-77
2023/04/28 00:07:36;;;;;;;;;;;8.10;99.90;;;;;;8289609;28;20008;-77
2023/04/28 00:11:37;;;;;;;;;;;8.70;99.90;;;;;;8290939;28;19918;-78
2023/04/28 00:15:37;;;;;;;;;;;8.40;99.90;;;;;;8294086;28;19928;-77
2023/04/28 00:19:38;;;;;;;;;;;8.20;99.90;;;;;;8278840;28;19910;-77
2023/04/28 00:23:38;;;;;;;;;;;8.10;99.90;;;;;;8292119;28;19922;-76
2023/04/28 00:27:39;;;;;;;;;;;8.20;99.90;;;;;;8295252;28;19964;-77
2023/04/28 00:31:39;;;;;;;;;;;8.20;99.90;;;;;;8294716;28;19933;-77
2023/04/28 00:35:40;;;;;;;;;;;8.20;99.90;;;;;;8274454;28;19921;-77
2023/04/28 00:39:41;;;;;;;;;;;8.40;99.90;;;;;;8268150;28;19925;-77
2023/04/28 00:43:46;;;;;;;;;;;8.40;99.90;;;;;;8271503;28;19918;-77
2023/04/28 00:47:46;;;;;;;;;;;8.60;99.90;;;;;;8279251;28;19913;-77
2023/04/28 00:51:46;;;;;;;;;;;8.90;99.90;;;;;;8289578;28;20357;-78
2023/04/28 00:55:48;;;;;;;;;;;8.50;99.90;;;;;;8284080;28;20271;-77
2023/04/28 00:59:48;;;;;;;;;;;8.40;99.90;;;;;;8289609;28;19948;-77
2023/04/28 01:03:49;;;;;;;;;;;8.30;99.90;;;;;;8277110;28;19913;-78
2023/04/28 01:07:50;;;;;;;;;;;8.30;99.90;;;;;;8294149;28;19996;-77
2023/04/28 01:11:50;;;;;;;;;;;8.60;99.90;;;;;;8290459;28;20067;-76
2023/04/28 01:15:51;;;;;;;;;;;8.50;99.90;;;;;;8274617;28;19920;-78
2023/04/28 01:19:52;;;;;;;;;;;8.40;99.90;;;;;;8269965;28;19913;-77
2023/04/28 01:23:52;;;;;;;;;;;8.30;99.90;;;;;;8270908;28;20003;-78
2023/04/28 01:27:52;;;;;;;;;;;8.60;99.90;;;;;;8273172;28;20382;-78
2023/04/28 01:31:53;;;;;;;;;;;9.00;99.90;;;;;;8276640;28;19920;-77
2023/04/28 01:35:56;;;;;;;;;;;8.80;99.90;;;;;;8279892;28;19960;-78
2023/04/28 01:39:56;;;;;;;;;;;8.50;99.90;;;;;;8300411;28;19914;-78
2023/04/28 01:44:04;;;;;;;;;;;8.30;99.90;;;;;;8293186;28;19976;-77
2023/04/28 01:48:05;;;;;;;;;;;8.20;99.90;;;;;;8291377;28;20529;-77
2023/04/28 01:52:05;;;;;;;;;;;8.10;99.90;;;;;;8289161;28;20033;-77
2023/04/28 01:56:06;;;;;;;;;;;8.10;99.90;;;;;;8276445;28;19990;-77
2023/04/28 02:00:07;;;;;;;;;;;8.10;99.90;;;;;;8301191;28;20012;-77
2023/04/28 02:04:07;;;;;;;;;;;8.20;99.90;;;;;;8291151;28;19933;-77
2023/04/28 02:08:07;;;;;;;;;;;8.10;99.90;;;;;;8278359;28;19920;-78
2023/04/28 02:12:08;;;;;;;;;;;8.30;99.90;;;;;;8293367;28;19913;-78
2023/04/28 02:16:08;;;;;;;;;;;8.50;99.90;;;;;;8290497;28;20378;-78
2023/04/28 02:20:09;;;;;;;;;;;8.60;99.90;;;;;;8283087;28;19914;-78
2023/04/28 02:24:10;;;;;;;;;;;8.50;99.90;;;;;;8280160;28;19914;-78
2023/04/28 02:28:10;;;;;;;;;;;8.40;99.90;;;;;;8292738;28;19940;-77
2023/04/28 02:32:11;;;;;;;;;;;8.30;99.90;;;;;;8298823;28;19921;-78
2023/04/28 02:36:11;;;;;;;;;;;8.40;99.90;;;;;;8288828;28;20279;-77
2023/04/28 02:40:12;;;;;;;;;;;8.30;99.90;;;;;;8279901;28;19913;-76
2023/04/28 02:44:12;;;;;;;;;;;8.30;99.90;;;;;;8298269;28;19917;-78
2023/04/28 02:48:12;;;;;;;;;;;8.20;99.90;;;;;;8297594;28;20412;-77
2023/04/28 02:52:13;;;;;;;;;;;8.30;99.90;;;;;;8290470;28;19920;-77
2023/04/28 02:56:13;;;;;;;;;;;8.40;99.90;;;;;;8283911;28;19918;-77
2023/04/28 03:00:14;;;;;;;;;;;8.40;99.90;;;;;;8295087;28;19920;-77
2023/04/28 03:04:15;;;;;;;;;;;8.60;99.90;;;;;;8279542;28;19917;-78
2023/04/28 03:08:15;;;;;;;;;;;8.60;99.90;;;;;;8290922;28;19914;-77
2023/04/28 03:12:16;;;;;;;;;;;9.00;99.90;;;;;;8298105;28;19993;-77
2023/04/28 03:16:16;;;;;;;;;;;9.10;99.90;;;;;;8278461;28;20873;-77
2023/04/28 03:20:17;;;;;;;;;;;8.80;99.90;;;;;;8279126;28;20420;-78
2023/04/28 03:24:17;;;;;;;;;;;8.80;99.90;;;;;;8290522;28;19926;-78
2023/04/28 03:28:17;;;;;;;;;;;9.00;99.90;;;;;;8279944;28;19910;-77
2023/04/28 03:32:18;;;;;;;;;;;8.80;99.90;;;;;;8296638;28;19936;-78
2023/04/28 03:36:18;;;;;;;;;;;8.90;99.90;;;;;;8296264;28;19909;-77
2023/04/28 03:40:19;;;;;;;;;;;8.80;99.90;;;;;;8303105;28;20298;-77
2023/04/28 03:44:20;;;;;;;;;;;8.90;99.90;;;;;;8280167;28;19917;-77
2023/04/28 03:48:20;;;;;;;;;;;8.90;99.90;;;;;;8291926;28;19913;-77
2023/04/28 03:52:21;;;;;;;;;;;8.70;99.90;;;;;;8293371;28;19924;-78
2023/04/28 03:56:21;;;;;;;;;;;8.70;99.90;;;;;;8297332;28;20308;-77
2023/04/28 04:00:22;;;;;;;;;;;8.70;99.90;;;;;;8279579;28;19922;-77
2023/04/28 04:04:22;;;;;;;;;;;8.70;99.90;;;;;;8278771;28;19917;-77
2023/04/28 04:08:23;;;;;;;;;;;9.50;99.90;;;;;;8292862;28;20333;-76
2023/04/28 04:12:23;;;;;;;;;;;9.60;99.90;;;;;;8294139;28;20417;-78
2023/04/28 04:16:24;;;;;;;;;;;9.30;99.90;;;;;;8297823;28;19914;-77
2023/04/28 04:20:24;;;;;;;;;;;9.10;99.90;;;;;;8290842;28;19913;-76
2023/04/28 04:24:25;;;;;;;;;;;9.00;99.90;;;;;;8259187;28;20345;-77
2023/04/28 04:28:25;;;;;;;;;;;9.30;99.90;;;;;;8270517;28;19918;-76
2023/04/28 04:32:26;;;;;;;;;;;9.70;99.90;;;;;;8296593;28;19995;-77
2023/04/28 04:36:26;;;;;;;;;;;9.90;99.90;;;;;;8299056;28;20352;-76
2023/04/28 04:40:27;;;;;;;;;;;10.10;99.90;;;;;;8282744;28;19917;-82
2023/04/28 04:44:27;;;;;;;;;;;10.10;99.90;;;;;;8305951;28;19923;-83
2023/04/28 04:48:28;;;;;;;;;;;10.20;99.90;;;;;;8308115;28;19967;-84
2023/04/28 04:52:29;;;;;;;;;;;10.40;99.90;;;;;;8309814;28;19914;-84
2023/04/28 04:56:29;;;;;;;;;;;10.40;99.90;;;;;;8291831;28;20335;-82
2023/04/28 05:00:30;;;;;;;;;;;10.40;99.90;;;;;;8286214;28;19917;-76
2023/04/28 05:04:30;;;;;;;;;;;10.40;99.90;;;;;;8283015;28;19941;-76
2023/04/28 05:08:31;;;;;;;;;;;10.50;99.90;;;;;;8298302;28;19913;-76
2023/04/28 05:12:31;;;;;;;;;;;10.50;99.90;;;;;;8302643;28;19971;-76
2023/04/28 05:16:32;;;;;;;;;;;10.40;99.90;;;;;;8282270;28;19917;-76
2023/04/28 05:20:32;;;;;;;;;;;10.50;99.90;;;;;;8297836;28;19913;-76
2023/04/28 05:24:32;;;;;;;;;;;10.50;99.90;;;;;;8295427;28;20533;-76
2023/04/28 05:28:33;;;;;;;;;;;10.50;99.90;;;;;;8304433;28;20004;-76
2023/04/28 05:32:34;;;;;;;;;;;10.60;99.90;;;;;;8287259;28;20366;-77
2023/04/28 05:36:34;;;;;;;;;;;10.60;99.90;;;;;;8294892;28;19972;-76
2023/04/28 05:40:35;;;;;;;;;;;10.60;99.90;;;;;;8294631;28;19920;-77
2023/04/28 05:44:35;;;;;;;;;;;10.70;99.90;;;;;;8301555;28;19966;-77
2023/04/28 05:48:36;;;;;;;;;;;10.70;99.90;;;;;;8285456;28;20329;-77
2023/04/28 05:52:36;;;;;;;;;;;10.70;99.90;;;;;;8297403;28;19917;-78
2023/04/28 05:56:37;;;;;;;;;;;10.80;99.90;;;;;;8278519;28;19921;-78
2023/04/28 06:00:37;;;;;;;;;;;10.90;99.90;;;;;;8295851;28;19922;-79
2023/04/28 06:04:38;;;;;;;;;;;10.80;99.90;;;;;;8289608;28;19949;-79
2023/04/28 06:08:38;;;;;;;;;;;11.10;99.90;;;;;;8292570;28;19918;-79
2023/04/28 06:12:39;;;;;;;;;;;11.00;99.90;;;;;;8280938;28;20012;-79
2023/04/28 06:16:39;;;;;;;;;;;11.10;99.90;;;;;;8291518;28;20294;-79
2023/04/28 06:20:40;;;;;;;;;;;11.20;99.90;;;;;;8278439;28;19914;-80
2023/04/28 06:24:40;;;;;;;;;;;11.20;99.90;;;;;;8289346;28;19917;-80
2023/04/28 06:28:41;;;;;;;;;;;11.10;99.90;;;;;;8295358;28;20424;-81
2023/04/28 06:32:41;;;;;;;;;;;11.10;99.90;;;;;;8292707;28;19952;-81
2023/04/28 06:36:42;;;;;;;;;;;11.10;99.90;;;;;;8296119;28;20297;-81
2023/04/28 06:40:44;;;;;;;;;;;11.10;99.90;;;;;;8297342;28;19910;-82
2023/04/28 06:44:45;;;;;;;;;;;11.10;99.90;;;;;;8278832;28;19918;-81
2023/04/28 06:48:45;;;;;;;;;;;11.10;99.90;;;;;;8276427;28;20298;-80
2023/04/28 06:52:46;;;;;;;;;;;11.00;99.90;;;;;;8285888;28;19932;-81
2023/04/28 06:56:46;;;;;;;;;;;11.10;99.90;;;;;;8296646;28;20345;-81
2023/04/28 07:00:47;;;;;;;;;;;11.20;99.90;;;;;;8296929;28;19913;-81
2023/04/28 07:04:48;;;;;;;;;;;11.30;99.90;;;;;;8278513;28;19971;-80
2023/04/28 07:08:48;;;;;;;;;;;11.30;99.90;;;;;;8289399;28;19913;-82
2023/04/28 07:12:50;;;;;;;;;;;11.30;99.90;;;;;;8280664;28;20381;-82
2023/04/28 07:16:50;;;;;;;;;;;11.40;99.90;;;;;;8280621;28;19937;-81
2023/04/28 07:20:50;;;;;;;;;;;11.40;99.90;;;;;;8284157;28;20040;-81
2023/04/28 07:24:51;;;;;;;;;;;11.40;99.90;;;;;;8296098;28;19924;-81
2023/04/28 07:28:52;;;;;;;;;;;11.60;99.90;;;;;;8281996;28;19913;-83
2023/04/28 07:32:52;;;;;;;;;;;11.50;99.90;;;;;;8295906;28;19910;-81
2023/04/28 07:36:53;;;;;;;;;;;11.50;99.90;;;;;;8295852;28;20348;-82
2023/04/28 07:40:55;;;;;;;;;;;11.60;99.90;;;;;;8280410;28;20116;-82
2023/04/28 07:44:57;;;;;;;;;;;11.80;99.90;;;;;;8291593;28;19918;-82
2023/04/28 07:48:57;;;;;;;;;;;11.90;99.90;;;;;;8285971;28;19945;-82
2023/04/28 07:52:58;;;;;;;;;;;11.90;99.90;;;;;;8297739;28;20683;-81
2023/04/28 07:56:58;;;;;;;;;;;12.00;99.90;;;;;;8295963;28;19925;-81
2023/04/28 08:00:59;;;;;;;;;;;12.10;99.90;;;;;;8287765;28;19928;-82
2023/04/28 08:05:00;;;;;;;;;;;12.20;99.90;;;;;;8284993;28;20677;-81
2023/04/28 08:09:01;;;;;;;;;;;12.50;99.90;;;;;;8282838;28;20290;-83
2023/04/28 08:13:02;;;;;;;;;;;12.60;99.90;;;;;;8279874;28;19909;-83
2023/04/28 08:17:02;;;;;;;;;;;12.70;99.90;;;;;;8283962;28;20008;-83
2023/04/28 08:21:03;;;;;;;;;;;12.80;99.90;;;;;;8273329;28;19918;-84
2023/04/28 08:25:07;;;;;;;;;;;12.70;99.90;;;;;;8270157;28;19971;-83
2023/04/28 08:29:07;;;;;;;;;;;12.80;99.90;;;;;;8298908;28;19917;-83
2023/04/28 08:33:08;;;;;;;;;;;12.70;99.90;;;;;;8294181;28;19913;-82
2023/04/28 08:37:08;;;;;;;;;;;12.70;99.90;;;;;;8293052;28;19917;-82
2023/04/28 08:41:09;;;;;;;;;;;12.50;99.90;;;;;;8294418;28;19910;-82
2023/04/28 08:45:12;;;;;;;;;;;12.40;99.90;;;;;;8283081;28;20620;-81
2023/04/28 08:49:17;;;;;;;;;;;12.30;99.90;;;;;;8304301;28;19913;-81
2023/04/28 08:53:24;;;;;;;;;;;12.30;99.90;;;;;;8285578;28;19944;-81
2023/04/28 08:57:33;;;;;;;;;;;12.40;99.90;;;;;;8277060;28;19960;-81
2023/04/28 09:01:35;;;;;;;;;;;12.40;99.90;;;;;;8284877;28;19921;-82
2023/04/28 09:05:35;;;;;;;;;;;12.60;99.90;;;;;;8283180;28;19914;-81
2023/04/28 09:09:36;;;;;;;;;;;12.70;99.90;;;;;;8284319;28;19910;-82
2023/04/28 09:13:36;;;;;;;;;;;12.90;99.90;;;;;;8283519;28;19959;-82
2023/04/28 09:17:50;;;;;;;;;;;12.80;99.90;;;;;;8299106;28;19913;-81
2023/04/28 09:21:54;;;;;;;;;;;12.70;99.90;;;;;;8299026;28;19920;-80
2023/04/28 09:26:01;;;;;;;;;;;12.80;99.90;;;;;;8288926;28;19928;-81
2023/04/28 09:30:02;;;;;;;;;;;12.70;99.90;;;;;;8285719;28;20429;-81
2023/04/28 09:34:03;;;;;;;;;;;12.70;99.90;;;;;;8282160;28;19979;-81
2023/04/28 09:38:03;;;;;;;;;;;12.80;99.90;;;;;;8299099;28;19917;-81
2023/04/28 09:42:04;;;;;;;;;;;12.70;99.90;;;;;;8286178;28;19956;-81
2023/04/28 09:46:04;;;;;;;;;;;12.80;99.90;;;;;;8298344;28;19917;-82
2023/04/28 09:50:08;;;;;;;;;;;13.20;99.90;;;;;;8303793;28;19913;-82
2023/04/28 09:54:10;;;;;;;;;;;13.60;99.90;;;;;;8299392;28;20016;-82
2023/04/28 09:58:12;;;;;;;;;;;13.80;99.90;;;;;;8300108;28;19960;-82
2023/04/28 10:02:16;;;;;;;;;;;13.60;99.90;;;;;;8286236;28;19917;-82
2023/04/28 10:06:16;;;;;;;;;;;13.60;99.90;;;;;;8282726;28;19917;-81
2023/04/28 10:10:17;;;;;;;;;;;13.30;99.90;;;;;;8300199;28;19920;-81
2023/04/28 10:14:17;;;;;;;;;;;13.00;99.90;;;;;;8300106;28;19927;-82
2023/04/28 10:18:18;;;;;;;;;;;13.20;99.90;;;;;;8282485;28;19922;-83
2023/04/28 10:22:34;;;;;;;;;;;13.20;99.90;;;;;;8297399;28;19914;-83
2023/04/28 10:27:07;;;;;;;;;;;13.20;99.90;;;;;;8280985;28;20420;-83
2023/04/28 10:31:08;;;;;;;;;;;13.20;99.90;;;;;;8247525;28;20386;-83
2023/04/28 10:35:21;;;;;;;;;;;13.20;99.90;;;;;;8282209;28;19964;-83
2023/04/28 10:39:22;;;;;;;;;;;13.40;99.90;;;;;;8296100;28;19918;-82
2023/04/28 10:43:28;;;;;;;;;;;14.00;99.90;;;;;;8307220;28;20349;-83
2023/04/28 10:47:48;;;;;;;;;;;14.20;99.90;;;;;;8280904;28;19952;-83
2023/04/28 10:51:49;;;;;;;;;;;14.40;99.90;;;;;;8280745;28;20369;-83
2023/04/28 10:56:04;;;;;;;;;;;14.80;99.90;;;;;;8288761;28;19925;-83
2023/04/28 11:00:23;;;;;;;;;;;15.30;99.90;;;;;;8279025;28;20695;-83
2023/04/28 11:04:23;;;;;;;;;;;15.30;99.90;;;;;;8291976;28;19913;-84
2023/04/28 11:08:24;;;;;;;;;;;16.10;99.90;;;;;;8297911;28;20336;-84
2023/04/28 11:12:26;;;;;;;;;;;16.70;99.90;;;;;;8283775;28;19913;-84
2023/04/28 11:16:27;;;;;;;;;;;17.30;99.90;;;;;;8296196;28;19920;-84
2023/04/28 11:20:27;;;;;;;;;;;17.60;99.90;;;;;;8281464;28;20669;-84
2023/04/28 11:24:28;;;;;;;;;;;17.60;99.90;;;;;;8279997;28;19956;-85
2023/04/28 11:28:29;;;;;;;;;;;18.40;99.90;;;;;;8278276;28;19913;-84
2023/04/28 11:32:30;;;;;;;;;;;18.30;99.90;;;;;;8295776;28;19928;-84
2023/04/28 11:36:35;;;;;;;;;;;18.20;99.90;;;;;;8280210;28;19932;-83
2023/04/28 11:40:35;;;;;;;;;;;18.00;99.90;;;;;;8276845;28;19981;-84
2023/04/28 11:44:36;;;;;;;;;;;17.40;99.90;;;;;;8281534;28;19918;-83
2023/04/28 11:48:37;;;;;;;;;;;16.80;99.90;;;;;;8278994;28;19913;-83
2023/04/28 11:52:48;;;;;;;;;;;16.90;99.90;;;;;;8278887;28;19918;-83
2023/04/28 11:56:49;;;;;;;;;;;16.80;99.90;;;;;;8295444;28;19917;-81
2023/04/28 12:01:06;;;;;;;;;;;17.00;99.90;;;;;;8274004;28;20988;-81
2023/04/28 12:05:06;;;;;;;;;;;17.90;99.90;;;;;;8274322;28;19917;-81
2023/04/28 12:09:14;;;;;;;;;;;18.80;99.90;;;;;;8275992;28;19917;-81
2023/04/28 12:13:15;;;;;;;;;;;18.90;99.90;;;;;;8273262;28;19909;-80
2023/04/28 12:17:25;;;;;;;;;;;18.40;99.90;;;;;;8287268;28;19913;-79
2023/04/28 12:21:25;;;;;;;;;;;18.00;99.90;;;;;;8273783;28;20328;-78
2023/04/28 12:25:26;;;;;;;;;;;17.40;99.90;;;;;;8263625;28;19952;-78
2023/04/28 12:29:39;;;;;;;;;;;17.10;99.90;;;;;;8290469;28;19988;-79
2023/04/28 12:33:40;;;;;;;;;;;17.20;99.90;;;;;;8280751;28;19951;-78
2023/04/28 12:37:43;;;;;;;;;;;17.30;99.90;;;;;;8286180;28;19913;-79
2023/04/28 12:41:43;;;;;;;;;;;17.10;99.90;;;;;;8293680;28;19913;-86
2023/04/28 12:45:44;;;;;;;;;;;17.20;99.90;;;;;;8280344;28;20895;-86
2023/04/28 12:49:45;;;;;;;;;;;16.90;99.90;;;;;;8278048;28;19964;-86
2023/04/28 12:53:46;;;;;;;;;;;17.00;99.90;;;;;;8253728;28;19924;-80
2023/04/28 12:57:46;;;;;;;;;;;16.80;99.90;;;;;;8263677;28;19921;-78
2023/04/28 13:01:47;;;;;;;;;;;16.80;99.90;;;;;;8273824;28;20012;-80
2023/04/28 13:05:48;;;;;;;;;;;17.20;99.90;;;;;;8284346;28;20381;-78
2023/04/28 13:09:48;;;;;;;;;;;17.30;99.90;;;;;;8285935;28;19920;-78
2023/04/28 13:13:50;;;;;;;;;;;17.20;99.90;;;;;;8270984;28;19909;-80
2023/04/28 13:17:50;;;;;;;;;;;17.10;99.90;;;;;;8269105;28;19913;-79
2023/04/28 13:21:51;;;;;;;;;;;17.40;99.90;;;;;;8272433;28;19920;-79
2023/04/28 13:25:51;;;;;;;;;;;17.50;99.90;;;;;;8262964;28;19917;-79
2023/04/28 13:29:52;;;;;;;;;;;17.80;99.90;;;;;;8281381;28;19913;-79
2023/04/28 13:33:52;;;;;;;;;;;18.20;99.90;;;;;;8270618;28;19972;-79
2023/04/28 13:38:00;;;;;;;;;;;18.00;99.90;;;;;;8284385;28;19914;-79
2023/04/28 13:42:01;;;;;;;;;;;18.30;99.90;;;;;;8277934;28;20420;-78
2023/04/28 13:46:07;;;;;;;;;;;18.70;99.90;;;;;;8272050;28;19929;-79
2023/04/28 13:50:07;;;;;;;;;;;18.30;99.90;;;;;;8301066;28;19914;-79
2023/04/28 13:54:10;;;;;;;;;;;18.70;99.90;;;;;;8282346;28;19947;-78
2023/04/28 13:58:10;;;;;;;;;;;18.60;99.90;;;;;;8288237;28;19917;-80
2023/04/28 14:02:11;;;;;;;;;;;18.10;99.90;;;;;;8268950;28;20651;-80
2023/04/28 14:06:11;;;;;;;;;;;18.20;99.90;;;;;;8277669;28;19921;-79
2023/04/28 14:10:12;;;;;;;;;;;18.30;99.90;;;;;;8277802;28;19961;-80
2023/04/28 14:14:12;;;;;;;;;;;18.30;99.90;;;;;;8277548;28;19928;-79
2023/04/28 14:18:13;;;;;;;;;;;19.50;99.90;;;;;;8279542;28;20523;-78
2023/04/28 14:22:14;;;;;;;;;;;19.80;99.90;;;;;;8280701;28;19924;-78
2023/04/28 14:26:14;;;;;;;;;;;19.90;99.90;;;;;;8285266;28;19917;-78
2023/04/28 14:30:15;;;;;;;;;;;19.60;99.90;;;;;;8279185;28;19924;-79
2023/04/28 14:34:16;;;;;;;;;;;19.20;99.90;;;;;;8296438;28;20285;-79
2023/04/28 14:38:16;;;;;;;;;;;18.70;99.90;;;;;;8295400;28;19909;-80
2023/04/28 14:42:17;;;;;;;;;;;18.30;99.90;;;;;;8279215;28;19910;-78
2023/04/28 14:46:21;;;;;;;;;;;17.70;99.90;;;;;;8277960;28;19914;-79
2023/04/28 14:50:22;;;;;;;;;;;17.30;99.90;;;;;;8292719;28;19913;-78
2023/04/28 14:54:22;;;;;;;;;;;17.40;99.90;;;;;;8277562;28;19929;-79
2023/04/28 14:58:23;;;;;;;;;;;17.50;99.90;;;;;;8271193;28;19917;-77
2023/04/28 15:02:28;;;;;;;;;;;17.20;99.90;;;;;;8278584;28;19943;-77
2023/04/28 15:06:28;;;;;;;;;;;17.00;99.90;;;;;;8297750;28;19917;-79
2023/04/28 15:10:31;;;;;;;;;;;16.90;99.90;;;;;;8276628;28;19919;-80
2023/04/28 15:14:32;;;;;;;;;;;17.10;99.90;;;;;;8290245;28;20448;-80
2023/04/28 15:18:32;;;;;;;;;;;16.60;99.90;;;;;;8277150;28;19984;-77
2023/04/28 15:22:33;;;;;;;;;;;16.10;99.90;;;;;;8293123;28;19913;-77
2023/04/28 15:26:34;;;;;;;;;;;15.70;99.90;;;;;;8277218;28;20409;-78
2023/04/28 15:30:34;;;;;;;;;;;15.40;99.90;;;;;;8294424;28;20358;-79
2023/04/28 15:34:35;;;;;;;;;;;15.30;99.90;;;;;;8294186;28;19909;-79
2023/04/28 15:38:37;;;;;;;;;;;15.30;99.90;;;;;;8294460;28;19936;-79
2023/04/28 15:42:38;;;;;;;;;;;15.60;99.90;;;;;;8286320;28;19949;-78
2023/04/28 15:46:38;;;;;;;;;;;16.00;99.90;;;;;;8287318;28;19921;-80
2023/04/28 15:50:39;;;;;;;;;;;16.10;99.90;;;;;;8273686;28;20056;-77
2023/04/28 15:54:39;;;;;;;;;;;16.00;99.90;;;;;;8289481;28;20001;-79
2023/04/28 15:58:40;;;;;;;;;;;15.80;99.90;;;;;;8264274;28;20375;-78
2023/04/28 16:02:42;;;;;;;;;;;15.90;99.90;;;;;;8267626;28;19988;-79
2023/04/28 16:06:42;;;;;;;;;;;16.00;99.90;;;;;;8263002;28;19914;-78
2023/04/28 16:10:43;;;;;;;;;;;16.10;99.90;;;;;;8293829;28;20478;-79
2023/04/28 16:14:43;;;;;;;;;;;16.30;99.90;;;;;;8289434;28;19913;-78
2023/04/28 16:18:44;;;;;;;;;;;16.40;99.90;;;;;;8273883;28;19957;-79
2023/04/28 16:22:45;;;;;;;;;;;16.60;99.90;;;;;;8288716;28;19913;-77
2023/04/28 16:26:45;;;;;;;;;;;16.80;99.90;;;;;;8291008;28;19917;-79
2023/04/28 16:30:45;;;;;;;;;;;17.10;99.90;;;;;;8261148;28;19921;-78
2023/04/28 16:34:46;;;;;;;;;;;17.30;99.90;;;;;;8267946;28;19945;-77
2023/04/28 16:38:46;;;;;;;;;;;17.40;99.90;;;;;;8273318;28;19952;-77
2023/04/28 16:42:47;;;;;;;;;;;17.20;99.90;;;;;;8269862;28;20530;-77
2023/04/28 16:46:47;;;;;;;;;;;16.90;99.90;;;;;;8264067;28;20456;-77
2023/04/28 16:50:48;;;;;;;;;;;16.90;99.90;;;;;;8259872;28;19921;-78
2023/04/28 16:54:48;;;;;;;;;;;17.40;99.90;;;;;;8260669;28;19926;-78
2023/04/28 16:58:48;;;;;;;;;;;17.30;99.90;;;;;;8275312;28;19914;-77
2023/04/28 17:02:49;;;;;;;;;;;16.70;99.90;;;;;;8263270;28;19981;-79
2023/04/28 17:06:50;;;;;;;;;;;16.60;99.90;;;;;;8289352;28;19914;-77
2023/04/28 17:10:51;;;;;;;;;;;16.40;99.90;;;;;;8279406;28;19918;-78
2023/04/28 17:14:51;;;;;;;;;;;16.40;99.90;;;;;;8269512;28;19910;-79
2023/04/28 17:18:52;;;;;;;;;;;16.30;99.90;;;;;;8280782;28;20564;-78
2023/04/28 17:22:53;;;;;;;;;;;16.40;99.90;;;;;;8302673;28;19910;-83
2023/04/28 17:26:54;;;;;;;;;;;16.20;99.90;;;;;;8299948;28;19924;-83
2023/04/28 17:30:55;;;;;;;;;;;16.00;99.90;;;;;;8280802;28;19913;-79
2023/04/28 17:34:55;;;;;;;;;;;15.80;99.90;;;;;;8292129;28;21279;-78
2023/04/28 17:38:56;;;;;;;;;;;15.50;99.90;;;;;;8297683;28;19913;-79
2023/04/28 17:42:57;;;;;;;;;;;15.40;99.90;;;;;;8292980;28;19913;-80
2023/04/28 17:46:57;;;;;;;;;;;15.30;99.90;;;;;;8280651;28;20047;-79
2023/04/28 17:50:58;;;;;;;;;;;15.30;99.90;;;;;;8298396;28;19917;-79
2023/04/28 17:54:58;;;;;;;;;;;15.40;99.90;;;;;;8297467;28;19926;-78
2023/04/28 17:58:59;;;;;;;;;;;15.50;99.90;;;;;;8299229;28;20008;-78
2023/04/28 18:03:00;;;;;;;;;;;15.40;99.90;;;;;;8289451;28;19918;-77
2023/04/28 18:07:00;;;;;;;;;;;15.00;99.90;;;;;;8294545;28;19921;-76
2023/04/28 18:11:02;;;;;;;;;;;14.80;99.90;;;;;;8275880;28;19925;-78
2023/04/28 18:15:02;;;;;;;;;;;14.40;99.90;;;;;;8270132;28;19991;-78
2023/04/28 18:19:03;;;;;;;;;;;14.40;99.90;;;;;;8295531;28;19918;-79
2023/04/28 18:23:04;;;;;;;;;;;14.50;99.90;;;;;;8291398;28;19953;-79
2023/04/28 18:27:05;;;;;;;;;;;14.60;99.90;;;;;;8273300;28;19925;-78
2023/04/28 18:31:05;;;;;;;;;;;14.40;99.90;;;;;;8290206;28;19948;-77
2023/04/28 18:35:06;;;;;;;;;;;14.30;99.90;;;;;;8288998;28;19970;-76
2023/04/28 18:39:07;;;;;;;;;;;14.20;99.90;;;;;;8276141;28;19979;-77
2023/04/28 18:43:09;;;;;;;;;;;14.30;99.90;;;;;;8294752;28;20452;-77
2023/04/28 18:47:09;;;;;;;;;;;14.20;99.90;;;;;;8291342;28;19925;-78
2023/04/28 18:51:10;;;;;;;;;;;14.10;99.90;;;;;;8276961;28;19913;-78
2023/04/28 18:55:10;;;;;;;;;;;14.00;99.90;;;;;;8276219;28;19929;-77
2023/04/28 18:59:11;;;;;;;;;;;14.00;99.90;;;;;;8296473;28;19914;-78
2023/04/28 19:03:12;;;;;;;;;;;13.90;99.90;;;;;;8291757;28;20345;-77
2023/04/28 19:07:12;;;;;;;;;;;14.00;99.90;;;;;;8294317;28;19918;-78
2023/04/28 19:11:13;;;;;;;;;;;13.90;99.90;;;;;;8276304;28;19914;-78
2023/04/28 19:15:13;;;;;;;;;;;13.90;99.90;;;;;;8275803;28;19917;-78
2023/04/28 19:19:14;;;;;;;;;;;13.80;99.90;;;;;;8294432;28;19981;-78
2023/04/28 19:23:14;;;;;;;;;;;13.80;99.90;;;;;;8292681;28;19996;-79
2023/04/28 19:27:15;;;;;;;;;;;13.80;99.90;;;;;;8293092;28;19917;-78
2023/04/28 19:31:15;;;;;;;;;;;13.80;99.90;;;;;;8293486;28;19968;-77
2023/04/28 19:35:16;;;;;;;;;;;13.90;99.90;;;;;;8275119;28;19909;-77
2023/04/28 19:39:16;;;;;;;;;;;13.90;99.90;;;;;;8291974;28;19917;-78
2023/04/28 19:43:17;;;;;;;;;;;13.70;99.90;;;;;;8273582;28;19913;-78
2023/04/28 19:47:28;;;;;;;;;;;13.70;99.90;;;;;;8289011;28;19932;-79
2023/04/28 19:51:28;;;;;;;;;;;13.70;99.90;;;;;;8284528;28;19924;-78
2023/04/28 19:55:29;;;;;;;;;;;13.70;99.90;;;;;;8288730;28;19968;-77
2023/04/28 19:59:30;;;;;;;;;;;13.70;99.90;;;;;;8289148;28;19921;-78
2023/04/28 20:03:30;;;;;;;;;;;13.80;99.90;;;;;;8289179;28;19914;-78
2023/04/28 20:07:31;;;;;;;;;;;13.90;99.90;;;;;;8291544;28;19910;-78
2023/04/28 20:11:31;;;;;;;;;;;13.90;99.90;;;;;;8273060;28;20469;-78
2023/04/28 20:15:32;;;;;;;;;;;13.80;99.90;;;;;;8294094;28;19951;-77
2023/04/28 20:19:33;;;;;;;;;;;13.80;99.90;;;;;;8289696;28;19922;-78
2023/04/28 20:23:35;;;;;;;;;;;13.90;99.90;;;;;;8290853;28;19921;-77
2023/04/28 20:27:36;;;;;;;;;;;13.90;99.90;;;;;;8272334;28;19917;-78
2023/04/28 20:31:36;;;;;;;;;;;13.80;99.90;;;;;;8290517;28;19976;-79
2023/04/28 20:35:36;;;;;;;;;;;13.70;99.90;;;;;;8290234;28;19917;-77
2023/04/28 20:39:37;;;;;;;;;;;13.80;99.90;;;;;;8288422;28;20437;-78
2023/04/28 20:43:37;;;;;;;;;;;13.90;99.90;;;;;;8288736;28;19917;-78
2023/04/28 20:47:38;;;;;;;;;;;13.90;99.90;;;;;;8288514;28;19971;-79
2023/04/28 20:51:44;;;;;;;;;;;13.80;99.90;;;;;;8276505;28;19929;-77
2023/04/28 20:55:44;;;;;;;;;;;13.60;99.90;;;;;;8271203;28;19928;-78
2023/04/28 20:59:45;;;;;;;;;;;13.50;99.90;;;;;;8290565;28;20492;-79
2023/04/28 21:03:45;;;;;;;;;;;13.40;99.90;;;;;;8288486;28;20448;-78
2023/04/28 21:07:46;;;;;;;;;;;13.20;99.90;;;;;;8270619;28;19996;-78
2023/04/28 21:11:46;;;;;;;;;;;13.10;99.90;;;;;;8288539;28;19945;-78
2023/04/28 21:15:47;;;;;;;;;;;12.90;99.90;;;;;;8287487;28;19913;-78
2023/04/28 21:19:47;;;;;;;;;;;12.90;99.90;;;;;;8271710;28;19913;-77
2023/04/28 21:23:48;;;;;;;;;;;12.90;99.90;;;;;;8286089;28;19927;-78
2023/04/28 21:27:49;;;;;;;;;;;12.80;99.90;;;;;;8265153;28;20601;-78
2023/04/28 21:31:49;;;;;;;;;;;12.90;99.90;;;;;;8287020;28;19920;-78
2023/04/28 21:35:50;;;;;;;;;;;12.90;99.90;;;;;;8270306;28;19913;-78
2023/04/28 21:39:51;;;;;;;;;;;12.90;99.90;;;;;;8271353;28;19921;-78
2023/04/28 21:43:51;;;;;;;;;;;12.80;99.90;;;;;;8269696;28;20374;-78
2023/04/28 21:47:52;;;;;;;;;;;12.50;99.90;;;;;;8286581;28;19909;-78
2023/04/28 21:51:53;;;;;;;;;;;12.60;99.90;;;;;;8275500;28;19918;-77
2023/04/28 21:55:53;;;;;;;;;;;12.30;99.90;;;;;;8278512;28;19921;-78
2023/04/28 21:59:53;;;;;;;;;;;12.00;99.90;;;;;;8279228;28;19993;-77
2023/04/28 22:03:54;;;;;;;;;;;12.20;99.90;;;;;;8291739;28;19971;-78
2023/04/28 22:07:55;;;;;;;;;;;12.10;99.90;;;;;;8276490;28;19913;-78
2023/04/28 22:11:55;;;;;;;;;;;12.00;99.90;;;;;;8296225;28;19913;-78
2023/04/28 22:15:56;;;;;;;;;;;12.00;99.90;;;;;;8298456;28;19917;-77
2023/04/28 22:19:57;;;;;;;;;;;12.00;99.90;;;;;;8294504;28;19913;-78
2023/04/28 22:23:57;;;;;;;;;;;11.90;99.90;;;;;;8277526;28;19951;-78
2023/04/28 22:27:58;;;;;;;;;;;11.80;99.90;;;;;;8294458;28;19952;-78
2023/04/28 22:31:58;;;;;;;;;;;11.60;99.90;;;;;;8292906;28;19929;-78
2023/04/28 22:35:59;;;;;;;;;;;11.70;99.90;;;;;;8294325;28;19921;-77
2023/04/28 22:39:59;;;;;;;;;;;11.60;99.90;;;;;;8294854;28;19977;-77
2023/04/28 22:44:00;;;;;;;;;;;11.40;99.90;;;;;;8292749;28;19920;-77
2023/04/28 22:48:00;;;;;;;;;;;11.40;99.90;;;;;;8276171;28;19910;-78
2023/04/28 22:52:01;;;;;;;;;;;11.30;99.90;;;;;;8293703;28;19914;-79
2023/04/28 22:56:02;;;;;;;;;;;11.40;99.90;;;;;;8276290;28;19918;-76
2023/04/28 23:00:02;;;;;;;;;;;11.10;99.90;;;;;;8293071;28;20008;-77
2023/04/28 23:04:03;;;;;;;;;;;11.10;99.90;;;;;;8292104;28;19925;-77
2023/04/28 23:08:04;;;;;;;;;;;11.30;99.90;;;;;;8276284;28;20390;-78
2023/04/28 23:12:04;;;;;;;;;;;11.30;99.90;;;;;;8291876;28;20421;-77
2023/04/28 23:16:05;;;;;;;;;;;11.20;99.90;;;;;;8292744;28;19960;-76
2023/04/28 23:20:06;;;;;;;;;;;11.10;99.90;;;;;;8291396;28;20310;-77
2023/04/28 23:24:08;;;;;;;;;;;11.10;99.90;;;;;;8275091;28;20009;-76
2023/04/28 23:28:09;;;;;;;;;;;10.80;99.90;;;;;;8282923;28;20574;-77